Time;durP1;ratioP1;P1;durP2;ratioP2;P2;SDS_P1;SDS_P2;PMS_P1;PMS_P2;Temp;Humidity;BMP_temperature;BMP_pressure;BME280_temperature;BME280_humidity;BME280_pressure;Samples;Min_cycle;Max_cycle;Signal;HPM_P1;HPM_P2
2022/01/25 00:31:12;;;;;;;22.37;16.93;;;1.50;99.90;;;;;;4963274;28;20518;-69
2022/01/25 00:33:43;;;;;;;20.13;15.50;;;1.50;99.90;;;;;;4975528;28;20447;-69
2022/01/25 00:36:12;;;;;;;23.90;16.27;;;1.50;99.90;;;;;;4974980;28;20807;-69
2022/01/25 00:38:38;;;;;;;24.90;15.33;;;1.50;99.90;;;;;;4974873;28;20435;-69
2022/01/25 00:41:04;;;;;;;23.40;16.50;;;1.40;99.90;;;;;;4975001;28;20492;-68
2022/01/25 00:43:30;;;;;;;22.77;16.70;;;1.40;99.90;;;;;;4975068;28;20996;-69
2022/01/25 00:45:59;;;;;;;21.50;17.20;;;1.40;99.90;;;;;;4975042;28;20180;-68
2022/01/25 00:49:01;;;;;;;26.63;17.20;;;1.40;99.90;;;;;;4975337;28;20797;-68
2022/01/25 00:53:59;;;;;;;26.70;17.47;;;1.40;99.90;;;;;;4975049;28;20460;-69
2022/01/25 00:56:29;;;;;;;27.00;17.67;;;1.40;99.90;;;;;;4974402;28;20448;-69
2022/01/25 00:58:55;;;;;;;25.53;17.90;;;1.30;99.90;;;;;;4974939;28;20502;-69
2022/01/25 01:01:22;;;;;;;24.47;18.70;;;1.30;99.90;;;;;;4974828;28;20439;-68
2022/01/25 01:03:47;;;;;;;27.03;16.83;;;1.30;99.90;;;;;;4973733;28;20476;-68
2022/01/25 01:06:14;;;;;;;22.90;18.07;;;1.40;99.90;;;;;;4974212;28;20440;-69
2022/01/25 01:08:41;;;;;;;23.83;17.57;;;1.30;99.90;;;;;;4974778;28;20176;-69
2022/01/25 01:11:10;;;;;;;24.30;16.77;;;1.30;99.90;;;;;;4974684;28;20467;-69
2022/01/25 01:16:32;;;;;;;24.97;17.80;;;1.30;99.90;;;;;;4974320;28;20453;-69
2022/01/25 01:33:01;;;;;;;30.83;19.23;;;1.10;99.90;;;;;;4974409;28;20455;-69
2022/01/25 01:43:16;;;;;;;22.30;18.53;;;1.10;99.90;;;;;;4972311;28;20239;-69
2022/01/25 01:45:59;;;;;;;25.50;20.10;;;1.10;99.90;;;;;;4973715;28;20520;-68
2022/01/25 01:48:40;;;;;;;27.80;18.40;;;1.10;99.90;;;;;;4973768;28;20443;-69
2022/01/25 01:51:20;;;;;;;26.80;19.27;;;1.10;99.90;;;;;;4962653;28;20494;-69
2022/01/25 01:53:47;;;;;;;22.13;18.90;;;1.10;99.90;;;;;;4973907;28;20467;-68
2022/01/25 01:56:13;;;;;;;27.70;17.93;;;1.10;99.90;;;;;;4973183;28;20444;-68
2022/01/25 01:58:39;;;;;;;30.07;18.37;;;1.20;99.90;;;;;;4973703;28;20450;-69
2022/01/25 02:01:08;;;;;;;25.80;18.80;;;1.20;99.90;;;;;;4973719;28;20490;-69
2022/01/25 02:03:34;;;;;;;29.80;22.50;;;1.20;99.90;;;;;;4973576;28;20936;-68
2022/01/25 02:06:00;;;;;;;32.90;20.70;;;1.10;99.90;;;;;;4973609;28;20855;-69
2022/01/25 02:08:26;;;;;;;25.03;17.97;;;1.10;99.90;;;;;;4973669;28;20542;-69
2022/01/25 02:10:52;;;;;;;36.63;19.40;;;1.10;99.90;;;;;;4973446;28;20292;-69
2022/01/25 02:13:17;;;;;;;29.57;20.20;;;1.10;99.90;;;;;;4973252;28;20576;-69
2022/01/25 02:15:48;;;;;;;28.03;20.00;;;1.10;99.90;;;;;;4972853;28;20685;-69
2022/01/25 02:23:59;;;;;;;27.53;20.67;;;1.10;99.90;;;;;;4932167;29;20475;-68
2022/01/25 02:26:25;;;;;;;24.50;19.30;;;1.10;99.90;;;;;;4961661;28;20937;-69
2022/01/25 02:28:50;;;;;;;29.33;20.03;;;1.10;99.90;;;;;;4972931;28;20271;-69
2022/01/25 02:31:16;;;;;;;28.23;18.83;;;1.00;99.90;;;;;;4973271;28;20661;-68
2022/01/25 02:33:43;;;;;;;29.60;20.73;;;1.00;99.90;;;;;;4973369;28;20658;-68
2022/01/25 02:36:22;;;;;;;27.13;19.87;;;1.00;99.90;;;;;;4972430;28;20192;-68
2022/01/25 02:38:47;;;;;;;35.03;22.47;;;1.00;99.90;;;;;;4972638;28;20439;-68
2022/01/25 02:41:13;;;;;;;25.03;21.17;;;0.90;99.90;;;;;;4972800;28;20452;-68
2022/01/25 02:43:40;;;;;;;27.17;20.47;;;0.90;99.90;;;;;;4972473;28;20204;-68
2022/01/25 02:48:56;;;;;;;29.17;20.67;;;0.80;99.90;;;;;;4972810;28;20523;-68
2022/01/25 02:51:28;;;;;;;34.53;21.20;;;0.80;99.90;;;;;;4973195;28;20440;-68
2022/01/25 02:53:54;;;;;;;26.80;17.87;;;0.80;99.90;;;;;;4972573;28;20467;-68
2022/01/25 02:56:20;;;;;;;28.20;20.00;;;0.80;99.90;;;;;;4972384;28;21024;-69
2022/01/25 02:58:46;;;;;;;32.43;21.03;;;0.80;99.90;;;;;;4972376;28;20188;-69
2022/01/25 03:01:12;;;;;;;27.10;20.13;;;0.70;99.90;;;;;;4972903;28;20526;-69
2022/01/25 03:03:38;;;;;;;32.40;20.90;;;0.70;99.90;;;;;;4972534;28;20491;-68
2022/01/25 03:06:04;;;;;;;24.97;20.10;;;0.70;99.90;;;;;;4972462;28;20443;-69
2022/01/25 03:08:30;;;;;;;25.77;18.30;;;0.60;99.90;;;;;;4972593;28;20188;-69
2022/01/25 03:10:56;;;;;;;30.10;21.17;;;0.60;99.90;;;;;;4972800;28;20446;-69
2022/01/25 03:13:27;;;;;;;29.33;19.60;;;0.60;99.90;;;;;;4972716;28;20204;-69
2022/01/25 03:15:58;;;;;;;31.30;22.60;;;0.60;99.90;;;;;;4958746;28;20269;-68
2022/01/25 03:21:15;;;;;;;28.33;19.87;;;0.50;99.90;;;;;;4972870;28;20466;-69
2022/01/25 03:23:41;;;;;;;25.77;19.10;;;0.50;99.90;;;;;;4965736;28;20481;-69
2022/01/25 03:26:07;;;;;;;27.00;19.93;;;0.50;99.90;;;;;;4968885;28;21079;-68
2022/01/25 03:28:33;;;;;;;25.47;17.93;;;0.50;99.90;;;;;;4976531;28;20526;-69
2022/01/25 03:30:59;;;;;;;27.17;19.27;;;0.50;99.90;;;;;;4976808;28;20673;-68
2022/01/25 03:33:25;;;;;;;27.73;18.90;;;0.50;99.90;;;;;;4975999;28;20458;-69
2022/01/25 03:35:51;;;;;;;26.30;18.50;;;0.50;99.90;;;;;;4976189;28;20808;-70
2022/01/25 03:38:17;;;;;;;27.13;18.50;;;0.50;99.90;;;;;;4976193;28;20436;-70
2022/01/25 03:40:44;;;;;;;26.70;18.13;;;0.50;99.90;;;;;;4975964;28;20290;-70
2022/01/25 03:43:10;;;;;;;26.60;19.00;;;0.40;99.90;;;;;;4976296;28;20211;-70
2022/01/25 03:45:38;;;;;;;26.43;19.60;;;0.40;99.90;;;;;;4974831;28;20973;-69
2022/01/25 03:50:43;;;;;;;26.00;21.50;;;0.40;99.90;;;;;;4976370;28;20439;-69
2022/01/25 03:53:10;;;;;;;30.33;20.70;;;0.40;99.90;;;;;;4976041;28;20471;-70
2022/01/25 03:55:37;;;;;;;31.20;20.30;;;0.40;99.90;;;;;;4976444;28;20427;-70
2022/01/25 03:58:03;;;;;;;30.90;21.90;;;0.30;99.90;;;;;;4976065;28;20526;-70
2022/01/25 04:00:29;;;;;;;30.67;21.63;;;0.40;99.90;;;;;;4976207;28;20440;-69
2022/01/25 04:03:01;;;;;;;29.60;20.67;;;0.30;99.90;;;;;;4976266;28;20530;-69
2022/01/25 04:05:37;;;;;;;31.70;21.43;;;0.20;99.90;;;;;;4975677;28;20678;-69
2022/01/25 04:08:03;;;;;;;35.37;22.70;;;0.20;99.90;;;;;;4975824;28;20463;-69
2022/01/25 04:10:29;;;;;;;28.83;21.30;;;0.10;99.90;;;;;;4975766;28;20486;-69
2022/01/25 04:12:55;;;;;;;34.00;21.20;;;0.10;99.90;;;;;;4975446;28;20459;-69
2022/01/25 04:15:21;;;;;;;33.97;22.20;;;0.10;99.90;;;;;;4975547;28;20195;-69
2022/01/25 04:17:52;;;;;;;32.17;21.47;;;0.10;99.90;;;;;;4975937;28;20211;-69
2022/01/25 04:20:23;;;;;;;37.07;23.80;;;0.10;99.90;;;;;;4975484;28;20795;-69
2022/01/25 04:25:33;;;;;;;29.30;20.67;;;0.10;99.90;;;;;;4975247;28;20493;-69
2022/01/25 04:27:59;;;;;;;33.73;22.97;;;0.10;99.90;;;;;;4975287;28;20455;-69
2022/01/25 04:30:25;;;;;;;29.50;21.83;;;0.10;99.90;;;;;;4975267;28;20215;-69
2022/01/25 04:33:03;;;;;;;31.40;21.27;;;0.00;99.90;;;;;;4975114;28;20492;-69
2022/01/25 04:54:39;;;;;;;33.30;22.83;;;-0.10;99.90;;;;;;4975099;28;20460;-69
2022/01/25 05:00:05;;;;;;;34.90;20.80;;;0.00;99.90;;;;;;4965666;28;20532;-69
2022/01/25 05:05:54;;;;;;;29.73;20.50;;;0.10;99.90;;;;;;4973524;28;20494;-69
2022/01/25 05:08:16;;;;;;;28.97;21.80;;;0.10;99.90;;;;;;4971366;28;20434;-69
2022/01/25 05:10:52;;;;;;;30.93;20.27;;;0.00;99.90;;;;;;4974085;28;20884;-69
2022/01/25 05:13:40;;;;;;;29.30;20.80;;;0.10;99.90;;;;;;4974755;28;20478;-70
2022/01/25 05:16:14;;;;;;;30.83;19.43;;;0.00;99.90;;;;;;4973945;28;20515;-69
2022/01/25 05:23:50;;;;;;;31.97;21.07;;;0.00;99.90;;;;;;4973701;28;20513;-69
2022/01/25 05:26:16;;;;;;;27.30;20.33;;;0.00;99.90;;;;;;4973952;28;20937;-69
2022/01/25 05:28:41;;;;;;;28.40;20.77;;;0.00;99.90;;;;;;4974615;28;20175;-69
2022/01/25 05:31:07;;;;;;;26.60;19.63;;;0.00;99.90;;;;;;4974385;28;20263;-69
2022/01/25 05:33:32;;;;;;;28.07;19.10;;;0.00;99.90;;;;;;4974200;28;20673;-69
2022/01/25 05:35:58;;;;;;;27.23;18.23;;;0.00;99.90;;;;;;4974265;28;20176;-69
2022/01/25 05:38:24;;;;;;;31.40;20.60;;;0.00;99.90;;;;;;4974048;28;20204;-69
2022/01/25 05:41:01;;;;;;;25.53;18.70;;;0.00;99.90;;;;;;4974364;28;20188;-69
2022/01/25 05:46:11;;;;;;;26.93;19.27;;;0.00;99.90;;;;;;4973956;28;20436;-69
2022/01/25 05:48:36;;;;;;;27.53;19.20;;;-0.10;99.90;;;;;;4973999;28;20953;-70
2022/01/25 05:51:02;;;;;;;27.03;19.43;;;-0.10;99.90;;;;;;4974288;28;20443;-70
2022/01/25 05:53:28;;;;;;;33.50;22.77;;;-0.10;99.90;;;;;;4973903;28;20227;-69
2022/01/25 05:55:54;;;;;;;27.00;21.17;;;0.00;99.90;;;;;;4973693;28;20247;-69
2022/01/25 05:58:20;;;;;;;27.77;18.90;;;0.00;99.90;;;;;;4973896;28;20172;-69
2022/01/25 06:00:46;;;;;;;30.90;20.43;;;0.00;99.90;;;;;;4973702;28;20435;-69
2022/01/25 06:03:12;;;;;;;29.00;19.83;;;0.00;99.90;;;;;;4973561;28;20470;-70
2022/01/25 06:05:38;;;;;;;27.73;19.33;;;0.00;99.90;;;;;;4973820;28;20207;-69
2022/01/25 06:08:04;;;;;;;27.40;18.80;;;0.00;99.90;;;;;;4973861;28;20180;-69
2022/01/25 06:10:31;;;;;;;32.50;20.20;;;0.00;99.90;;;;;;4973557;28;20458;-69
2022/01/25 06:12:57;;;;;;;33.30;20.73;;;0.00;99.90;;;;;;4973883;28;20474;-70
2022/01/25 06:15:22;;;;;;;31.97;21.50;;;0.00;99.90;;;;;;4973427;28;20925;-70
2022/01/25 06:17:49;;;;;;;31.77;21.63;;;0.00;99.90;;;;;;4974209;28;20234;-70
2022/01/25 06:20:15;;;;;;;30.13;21.70;;;-0.10;99.90;;;;;;4973566;28;20459;-70
2022/01/25 06:22:41;;;;;;;26.30;19.87;;;-0.10;99.90;;;;;;4973620;28;20494;-70
2022/01/25 06:25:07;;;;;;;29.13;20.47;;;-0.10;99.90;;;;;;4972202;28;20507;-70
2022/01/25 06:27:33;;;;;;;29.30;22.37;;;-0.20;99.90;;;;;;4973604;28;20553;-70
2022/01/25 06:29:59;;;;;;;29.73;20.67;;;-0.20;99.90;;;;;;4973683;28;20442;-70
2022/01/25 06:32:24;;;;;;;28.60;21.00;;;-0.30;99.90;;;;;;4971499;28;20203;-70
2022/01/25 06:34:50;;;;;;;32.17;23.00;;;-0.30;99.90;;;;;;4973140;28;20192;-70
2022/01/25 06:37:16;;;;;;;35.53;22.20;;;-0.30;99.90;;;;;;4972912;28;20195;-70
2022/01/25 06:39:42;;;;;;;31.70;20.50;;;-0.30;99.90;;;;;;4972999;28;20192;-70
2022/01/25 06:42:08;;;;;;;32.10;22.33;;;-0.20;99.90;;;;;;4972286;28;20211;-69
2022/01/25 06:44:36;;;;;;;34.13;20.47;;;-0.20;99.90;;;;;;4973066;28;20474;-70
2022/01/25 06:47:02;;;;;;;27.17;18.80;;;-0.30;99.90;;;;;;4972479;28;20447;-70
2022/01/25 06:49:28;;;;;;;30.60;20.57;;;-0.30;99.90;;;;;;4973480;28;20440;-70
2022/01/25 06:51:53;;;;;;;28.20;20.73;;;-0.30;99.90;;;;;;4972904;28;20457;-70
2022/01/25 06:54:19;;;;;;;32.50;22.07;;;-0.30;99.90;;;;;;4972998;28;20524;-69
2022/01/25 06:56:44;;;;;;;26.20;20.43;;;-0.30;99.90;;;;;;4972648;28;20223;-70
2022/01/25 06:59:10;;;;;;;35.83;21.57;;;-0.30;99.90;;;;;;4972786;28;20196;-70
2022/01/25 07:01:36;;;;;;;33.73;22.73;;;-0.30;99.90;;;;;;4971669;28;20180;-70
2022/01/25 07:04:02;;;;;;;27.30;20.13;;;-0.30;99.90;;;;;;4972587;28;20582;-70
2022/01/25 07:06:28;;;;;;;28.80;21.47;;;-0.20;99.90;;;;;;4969691;28;20676;-70
2022/01/25 07:08:53;;;;;;;30.60;20.67;;;-0.20;99.90;;;;;;4973178;28;20490;-70
2022/01/25 07:11:19;;;;;;;26.50;19.80;;;-0.20;99.90;;;;;;4972463;28;20176;-70
2022/01/25 07:13:47;;;;;;;29.10;20.83;;;-0.20;99.90;;;;;;4973029;28;20200;-70
2022/01/25 07:16:12;;;;;;;34.00;21.33;;;-0.20;99.90;;;;;;4972362;28;20442;-68
2022/01/25 07:18:38;;;;;;;32.90;20.10;;;-0.20;99.90;;;;;;4972678;28;20439;-68
2022/01/25 07:21:03;;;;;;;28.30;19.40;;;-0.20;99.90;;;;;;4972828;28;20195;-68
2022/01/25 07:23:29;;;;;;;28.60;21.07;;;-0.20;99.90;;;;;;4972125;28;20207;-68
2022/01/25 07:25:55;;;;;;;33.37;23.00;;;-0.20;99.90;;;;;;4971912;28;20176;-68
2022/01/25 07:28:20;;;;;;;32.03;22.37;;;-0.20;99.90;;;;;;4972105;28;20211;-68
2022/01/25 07:30:46;;;;;;;33.60;22.17;;;-0.10;99.90;;;;;;4972452;28;20590;-68
2022/01/25 07:33:11;;;;;;;34.80;22.47;;;0.00;99.90;;;;;;4972889;28;20572;-68
2022/01/25 07:35:38;;;;;;;30.13;22.77;;;0.00;99.90;;;;;;4957202;28;20176;-68
2022/01/25 07:38:04;;;;;;;30.40;21.70;;;0.10;99.90;;;;;;4972605;28;20303;-68
2022/01/25 07:40:30;;;;;;;27.20;21.27;;;0.20;99.90;;;;;;4964473;28;20464;-69
2022/01/25 07:42:56;;;;;;;31.20;22.20;;;0.50;99.90;;;;;;4946017;28;20474;-69
2022/01/25 07:45:24;;;;;;;31.77;21.33;;;0.80;99.90;;;;;;4953221;28;20459;-69
2022/01/25 07:47:49;;;;;;;33.87;22.10;;;1.30;99.90;;;;;;4972240;28;20442;-69
2022/01/25 07:50:15;;;;;;;29.17;20.23;;;1.80;99.90;;;;;;4964433;28;20435;-69
2022/01/25 07:52:41;;;;;;;32.20;22.37;;;2.20;99.90;;;;;;4969120;28;20293;-69
2022/01/25 07:55:08;;;;;;;35.77;22.77;;;2.50;99.90;;;;;;4971082;28;20439;-69
2022/01/25 07:57:34;;;;;;;31.27;20.27;;;2.80;99.90;;;;;;4972697;28;20259;-68
2022/01/25 08:00:00;;;;;;;39.43;23.87;;;3.30;99.90;;;;;;4972413;28;20527;-68
2022/01/25 08:02:26;;;;;;;30.30;20.37;;;4.10;99.90;;;;;;4968487;28;20266;-68
2022/01/25 08:04:51;;;;;;;30.17;19.57;;;4.60;99.90;;;;;;4972270;28;20467;-69
2022/01/25 08:07:17;;;;;;;26.10;19.20;;;4.90;99.90;;;;;;4971994;28;20435;-69
2022/01/25 08:09:43;;;;;;;28.30;20.23;;;4.80;99.90;;;;;;4972150;28;20208;-68
2022/01/25 08:12:10;;;;;;;27.03;19.00;;;5.00;99.90;;;;;;4969271;28;20172;-68
2022/01/25 08:14:37;;;;;;;27.20;20.10;;;5.90;99.90;;;;;;4975399;28;20432;-69
2022/01/25 08:17:03;;;;;;;30.57;18.57;;;6.30;99.90;;;;;;4975561;28;20863;-69
2022/01/25 08:19:29;;;;;;;37.27;26.80;;;6.50;99.90;;;;;;4975068;28;20447;-69
2022/01/25 08:21:54;;;;;;;28.80;19.40;;;7.20;99.90;;;;;;4969057;28;20180;-69
2022/01/25 08:24:20;;;;;;;24.60;18.40;;;7.20;99.90;;;;;;4965776;28;20204;-69
2022/01/25 08:26:47;;;;;;;28.70;19.60;;;7.80;99.90;;;;;;4974895;28;20165;-69
2022/01/25 08:29:12;;;;;;;26.13;18.53;;;7.60;99.90;;;;;;4975729;28;20556;-69
2022/01/25 08:31:39;;;;;;;24.43;20.27;;;8.30;99.90;;;;;;4970582;28;20443;-70
2022/01/25 08:34:05;;;;;;;20.10;17.80;;;8.80;99.90;;;;;;4975132;28;20654;-70
2022/01/25 08:36:31;;;;;;;24.80;19.50;;;9.80;99.90;;;;;;4974907;28;20440;-70
2022/01/25 08:38:57;;;;;;;24.73;19.80;;;10.60;99.90;;;;;;4975546;28;20522;-68
2022/01/25 08:41:23;;;;;;;22.83;20.53;;;11.10;99.90;;;;;;4971436;28;20185;-69
2022/01/25 08:43:49;;;;;;;21.57;19.30;;;11.20;99.50;;;;;;4973183;28;20471;-69
2022/01/25 08:46:16;;;;;;;22.70;19.87;;;11.70;98.80;;;;;;4974869;28;20531;-69
2022/01/25 08:48:42;;;;;;;22.10;19.90;;;12.30;97.00;;;;;;4975830;28;20228;-73
2022/01/25 08:51:08;;;;;;;21.77;19.73;;;12.90;95.50;;;;;;4974934;28;20427;-69
2022/01/25 08:53:34;;;;;;;22.73;20.50;;;13.20;93.60;;;;;;4969514;28;20459;-69
2022/01/25 08:56:00;;;;;;;23.13;20.83;;;13.60;92.50;;;;;;4974566;28;20180;-69
2022/01/25 08:58:26;;;;;;;23.63;20.30;;;14.00;91.00;;;;;;4974376;28;20807;-69
2022/01/25 09:00:52;;;;;;;22.63;19.90;;;14.40;88.40;;;;;;4975101;28;20201;-68
2022/01/25 09:03:18;;;;;;;24.23;21.73;;;14.50;87.50;;;;;;4971261;28;20922;-68
2022/01/25 09:05:43;;;;;;;23.23;20.20;;;15.20;84.10;;;;;;4974643;28;20234;-69
2022/01/25 09:08:10;;;;;;;23.00;20.73;;;15.80;80.60;;;;;;4974666;28;20177;-68
2022/01/25 09:10:36;;;;;;;21.20;19.07;;;15.20;79.50;;;;;;4974541;28;20649;-67
2022/01/25 09:13:02;;;;;;;23.87;21.47;;;15.60;79.00;;;;;;4971512;28;20455;-67
2022/01/25 09:15:28;;;;;;;21.90;19.80;;;16.50;76.50;;;;;;4973529;28;20531;-68
2022/01/25 09:17:53;;;;;;;22.57;20.50;;;17.10;72.00;;;;;;4974537;28;20443;-68
2022/01/25 09:20:20;;;;;;;24.43;22.10;;;16.90;70.40;;;;;;4966963;28;20173;-68
2022/01/25 09:22:45;;;;;;;24.30;21.80;;;15.90;70.80;;;;;;4964552;28;20192;-68
2022/01/25 09:25:13;;;;;;;22.80;20.50;;;15.60;74.30;;;;;;4973145;28;20554;-69
2022/01/25 09:27:39;;;;;;;23.67;21.17;;;16.50;70.90;;;;;;4974529;28;20491;-68
2022/01/25 09:30:05;;;;;;;21.27;19.27;;;16.80;69.00;;;;;;4973962;28;20514;-68
2022/01/25 09:32:31;;;;;;;21.80;19.50;;;17.20;66.80;;;;;;4970320;28;20456;-68
2022/01/25 09:34:57;;;;;;;21.90;19.57;;;17.30;65.30;;;;;;4974073;28;20501;-68
2022/01/25 09:37:22;;;;;;;22.37;20.10;;;17.50;64.30;;;;;;4973815;28;20638;-68
2022/01/25 09:39:48;;;;;;;20.17;18.07;;;17.80;64.10;;;;;;4973895;28;20180;-67
2022/01/25 09:42:14;;;;;;;23.03;20.47;;;18.60;61.10;;;;;;4968496;28;20240;-68
2022/01/25 09:44:40;;;;;;;22.20;20.10;;;18.60;60.00;;;;;;4971127;28;20275;-68
2022/01/25 09:47:07;;;;;;;25.10;22.70;;;19.20;58.70;;;;;;4972167;28;20180;-68
2022/01/25 09:49:33;;;;;;;27.33;24.80;;;19.00;57.00;;;;;;4973434;28;20466;-69
2022/01/25 09:52:05;;;;;;;26.73;24.03;;;18.40;58.30;;;;;;4970401;28;20443;-68
2022/01/25 09:54:32;;;;;;;33.87;30.87;;;19.00;57.40;;;;;;4973166;28;20436;-68
2022/01/25 09:56:58;;;;;;;30.90;28.10;;;19.00;56.90;;;;;;4973599;28;20431;-68
2022/01/25 09:59:26;;;;;;;23.57;21.37;;;19.50;55.50;;;;;;4973396;28;20650;-68
2022/01/25 10:01:53;;;;;;;23.67;21.43;;;20.30;54.40;;;;;;4968223;28;20436;-68
2022/01/25 10:04:39;;;;;;;21.80;19.73;;;21.40;52.30;;;;;;4973763;28;20455;-69
2022/01/25 10:07:06;;;;;;;23.50;21.30;;;20.80;51.10;;;;;;4970928;28;20800;-69
2022/01/25 10:09:32;;;;;;;20.73;18.83;;;20.00;53.20;;;;;;4972762;28;20494;-69
2022/01/25 10:12:18;;;;;;;21.03;19.03;;;20.10;52.10;;;;;;4969250;28;20476;-69
2022/01/25 10:14:54;;;;;;;21.83;19.80;;;21.50;51.00;;;;;;4973099;28;21012;-69
2022/01/25 10:17:34;;;;;;;22.10;20.03;;;21.90;49.30;;;;;;4972622;28;20526;-68
2022/01/25 10:19:59;;;;;;;23.23;20.90;;;22.40;48.30;;;;;;4973158;28;20525;-69
2022/01/25 10:22:25;;;;;;;22.27;20.27;;;22.60;47.50;;;;;;4969491;28;21072;-68
2022/01/25 10:24:51;;;;;;;23.57;21.40;;;23.20;46.60;;;;;;4973205;28;20569;-68
2022/01/25 10:27:19;;;;;;;20.87;18.83;;;24.10;45.10;;;;;;4972958;28;20447;-69
2022/01/25 10:29:48;;;;;;;22.47;20.30;;;24.10;43.60;;;;;;4972969;28;20168;-69
2022/01/25 10:32:15;;;;;;;21.80;19.90;;;24.10;43.60;;;;;;4969484;28;20455;-69
2022/01/25 10:34:45;;;;;;;21.87;19.93;;;24.40;42.60;;;;;;4972655;28;20951;-70
2022/01/25 10:37:15;;;;;;;23.50;21.40;;;24.10;42.40;;;;;;4972659;28;20436;-69
2022/01/25 10:39:46;;;;;;;24.43;22.13;;;23.70;42.40;;;;;;4973048;28;20953;-68
2022/01/25 10:42:18;;;;;;;23.50;21.30;;;24.00;42.70;;;;;;4970436;28;20443;-68
2022/01/25 10:44:58;;;;;;;27.93;25.27;;;24.00;41.80;;;;;;4972211;28;20489;-69
2022/01/25 10:47:42;;;;;;;23.70;21.20;;;23.20;42.70;;;;;;4972842;28;20439;-69
2022/01/25 10:50:17;;;;;;;21.67;19.87;;;22.90;43.40;;;;;;4972698;28;20821;-69
2022/01/25 10:52:44;;;;;;;24.20;21.80;;;21.80;44.60;;;;;;4969204;28;20455;-69
2022/01/25 10:55:10;;;;;;;22.97;20.80;;;21.40;44.20;;;;;;4972661;28;20447;-69
2022/01/25 10:57:37;;;;;;;24.50;22.20;;;21.10;45.20;;;;;;4972787;28;20428;-69
2022/01/25 11:00:09;;;;;;;25.87;23.40;;;21.40;44.90;;;;;;4972218;28;20439;-69
2022/01/25 11:02:36;;;;;;;27.90;25.30;;;20.70;45.40;;;;;;4968601;28;20482;-69
2022/01/25 11:05:05;;;;;;;27.80;24.90;;;20.80;46.10;;;;;;4971679;28;20844;-69
2022/01/25 11:07:39;;;;;;;27.97;25.10;;;20.40;46.00;;;;;;4970045;28;20490;-68
2022/01/25 11:10:05;;;;;;;28.37;25.73;;;20.40;46.30;;;;;;4972695;28;20471;-69
2022/01/25 11:12:36;;;;;;;30.13;27.33;;;20.30;46.50;;;;;;4968221;28;20447;-68
2022/01/25 11:15:03;;;;;;;28.37;25.40;;;21.10;46.20;;;;;;4972060;28;20533;-69
2022/01/25 11:17:31;;;;;;;27.93;25.23;;;21.50;45.20;;;;;;4970328;28;20453;-68
2022/01/25 11:19:59;;;;;;;27.60;24.90;;;22.00;44.20;;;;;;4971976;28;20431;-68
2022/01/25 11:22:25;;;;;;;29.37;26.50;;;22.60;44.50;;;;;;4967968;28;20490;-68
2022/01/25 11:25:19;;;;;;;27.50;24.97;;;23.60;43.60;;;;;;4971703;28;20455;-68
2022/01/25 11:27:45;;;;;;;27.73;25.27;;;23.60;42.90;;;;;;4970289;28;20440;-68
2022/01/25 11:30:16;;;;;;;27.40;24.73;;;24.70;41.80;;;;;;4971785;28;20446;-68
2022/01/25 11:32:45;;;;;;;26.67;24.07;;;24.60;41.80;;;;;;4964666;28;20455;-68
2022/01/25 11:35:13;;;;;;;30.63;25.10;;;24.70;42.00;;;;;;4971966;28;20442;-68
2022/01/25 11:37:44;;;;;;;25.90;23.60;;;25.50;40.60;;;;;;4971723;28;20766;-68
2022/01/25 11:40:30;;;;;;;41.13;37.40;;;25.70;41.10;;;;;;4971955;28;20435;-68
2022/01/25 11:42:58;;;;;;;35.07;31.80;;;25.10;41.90;;;;;;4968247;28;21912;-67
2022/01/25 11:45:27;;;;;;;124.27;89.63;;;23.90;42.30;;;;;;4972313;28;20471;-68
2022/01/25 11:47:54;;;;;;;35.27;31.70;;;23.40;43.50;;;;;;4973534;28;20439;-67
2022/01/25 11:50:29;;;;;;;35.63;31.17;;;23.90;42.40;;;;;;4976273;28;20435;-67
2022/01/25 11:53:05;;;;;;;30.67;27.30;;;24.90;41.40;;;;;;4972659;28;20935;-66
2022/01/25 11:55:41;;;;;;;29.23;26.33;;;25.50;40.50;;;;;;4975992;28;20444;-66
2022/01/25 11:58:11;;;;;;;32.53;29.03;;;25.80;39.60;;;;;;4975796;28;20995;-67
2022/01/25 12:00:50;;;;;;;28.97;26.13;;;26.70;39.40;;;;;;4968449;28;20530;-67
2022/01/25 12:03:25;;;;;;;28.37;25.97;;;26.00;39.60;;;;;;4970436;28;20481;-66
2022/01/25 12:05:59;;;;;;;29.67;26.73;;;25.70;39.10;;;;;;4976092;28;20462;-68
2022/01/25 12:11:46;;;;;;;29.20;26.60;;;25.00;39.60;;;;;;4975720;28;20432;-68
2022/01/25 12:14:17;;;;;;;29.07;26.23;;;25.00;39.40;;;;;;4972779;28;20539;-69
2022/01/25 12:17:31;;;;;;;36.10;32.40;;;24.60;40.40;;;;;;4973833;28;20443;-68
2022/01/25 12:20:00;;;;;;;31.83;28.70;;;25.70;39.60;;;;;;4971523;28;20439;-70
2022/01/25 12:22:35;;;;;;;31.90;28.60;;;24.50;40.40;;;;;;4968115;28;20460;-72
2022/01/25 12:25:16;;;;;;;40.00;33.53;;;24.10;42.90;;;;;;4966539;28;20462;-71
2022/01/25 12:28:01;;;;;;;41.43;35.50;;;24.70;41.20;;;;;;4965380;28;20458;-71
2022/01/25 12:30:26;;;;;;;31.90;28.60;;;26.40;39.80;;;;;;4968577;28;20444;-71
2022/01/25 12:33:03;;;;;;;45.20;38.43;;;27.30;38.80;;;;;;4970003;28;20459;-71
2022/01/25 12:35:44;;;;;;;34.53;31.20;;;27.10;38.30;;;;;;4973520;28;20172;-70
2022/01/25 12:38:15;;;;;;;30.87;28.00;;;25.90;38.90;;;;;;4975493;28;20431;-70
2022/01/25 12:41:06;;;;;;;35.33;31.73;;;25.10;40.10;;;;;;4975052;28;20444;-70
2022/01/25 12:43:47;;;;;;;31.53;28.53;;;25.20;40.00;;;;;;4971157;28;20467;-70
2022/01/25 12:46:18;;;;;;;33.53;30.23;;;24.30;40.80;;;;;;4972690;28;20817;-70
2022/01/25 12:48:47;;;;;;;33.40;30.10;;;25.20;40.00;;;;;;4974488;28;20470;-70
2022/01/25 12:51:16;;;;;;;32.47;29.37;;;24.70;40.10;;;;;;4973809;28;20821;-71
2022/01/25 12:53:44;;;;;;;34.40;31.30;;;23.80;40.90;;;;;;4971763;28;20598;-70
2022/01/25 12:56:16;;;;;;;32.87;29.67;;;23.50;41.40;;;;;;4974942;28;20436;-71
2022/01/25 12:58:43;;;;;;;33.47;30.37;;;23.30;42.10;;;;;;4973618;28;20427;-69
2022/01/25 13:01:22;;;;;;;31.30;28.33;;;23.70;41.60;;;;;;4974231;28;20847;-70
2022/01/25 13:03:49;;;;;;;34.80;31.60;;;24.20;41.00;;;;;;4971078;28;20471;-70
2022/01/25 13:06:48;;;;;;;31.23;28.23;;;24.20;40.90;;;;;;4972664;28;20514;-71
2022/01/25 13:09:22;;;;;;;30.10;27.20;;;25.80;40.00;;;;;;4974671;28;20439;-71
2022/01/25 13:17:05;;;;;;;41.10;36.93;;;26.90;37.90;;;;;;4966403;28;20467;-69
2022/01/25 13:19:43;;;;;;;33.47;29.83;;;26.30;38.50;;;;;;4972430;28;20678;-71
2022/01/25 13:22:12;;;;;;;30.50;27.73;;;26.70;37.90;;;;;;4969559;28;20440;-70
2022/01/25 13:24:55;;;;;;;31.43;28.53;;;26.90;37.00;;;;;;4971933;28;20515;-69
2022/01/25 13:27:21;;;;;;;30.40;27.70;;;26.60;37.50;;;;;;4973686;28;21011;-69
2022/01/25 13:32:42;;;;;;;30.80;27.90;;;25.80;38.10;;;;;;4966275;28;20442;-70
2022/01/25 13:35:18;;;;;;;30.57;27.93;;;26.60;37.60;;;;;;4973639;28;20441;-70
2022/01/25 13:37:59;;;;;;;31.10;24.90;;;26.50;37.50;;;;;;4973302;28;20837;-69
2022/01/25 13:40:33;;;;;;;29.83;27.03;;;27.30;36.90;;;;;;4973282;28;20443;-69
2022/01/25 13:43:19;;;;;;;28.03;25.33;;;27.20;36.40;;;;;;4970744;28;21039;-69
2022/01/25 13:45:50;;;;;;;31.20;28.40;;;26.80;36.50;;;;;;4973149;28;20945;-69
2022/01/25 13:48:16;;;;;;;28.63;26.13;;;26.60;36.90;;;;;;4973158;28;20446;-69
2022/01/25 13:50:42;;;;;;;31.00;28.10;;;26.90;36.70;;;;;;4973130;28;20465;-69
2022/01/25 13:53:08;;;;;;;30.10;27.17;;;26.90;36.50;;;;;;4968346;28;20742;-69
2022/01/25 13:55:35;;;;;;;30.40;27.50;;;25.50;37.30;;;;;;4971223;28;20530;-69
2022/01/25 13:58:02;;;;;;;31.00;28.13;;;23.00;39.70;;;;;;4973650;28;20435;-69
2022/01/25 14:00:28;;;;;;;32.97;29.70;;;22.60;40.50;;;;;;4972971;28;20439;-69
2022/01/25 14:02:56;;;;;;;30.83;27.93;;;21.60;41.50;;;;;;4968361;28;20961;-69
2022/01/25 14:05:23;;;;;;;30.33;27.53;;;20.10;43.40;;;;;;4973008;28;20459;-69
2022/01/25 14:07:50;;;;;;;31.83;28.50;;;18.80;45.10;;;;;;4970733;28;20440;-69
2022/01/25 14:10:22;;;;;;;33.90;30.53;;;16.00;49.00;;;;;;4971388;28;20450;-69
2022/01/25 14:23:48;;;;;;;33.43;29.80;;;9.90;68.30;;;;;;4964198;28;20455;-67
2022/01/25 14:26:16;;;;;;;35.50;31.57;;;9.60;73.90;;;;;;4968218;28;20432;-68
2022/01/25 14:28:45;;;;;;;36.80;29.70;;;9.30;78.70;;;;;;4970826;28;20168;-68
2022/01/25 14:31:17;;;;;;;36.13;29.43;;;8.90;83.50;;;;;;4970883;28;20439;-68
2022/01/25 14:33:59;;;;;;;36.83;31.10;;;8.50;90.00;;;;;;4967734;28;20463;-68
2022/01/25 14:36:27;;;;;;;31.50;27.53;;;8.40;92.30;;;;;;4971033;28;20805;-69
2022/01/25 14:38:54;;;;;;;37.57;28.33;;;8.20;94.30;;;;;;4969901;28;20435;-68
2022/01/25 14:41:23;;;;;;;39.30;27.10;;;7.90;96.60;;;;;;4968548;28;20485;-70
2022/01/25 14:43:52;;;;;;;31.43;25.83;;;7.90;98.50;;;;;;4961731;28;20455;-74
2022/01/25 14:46:26;;;;;;;42.77;28.83;;;7.50;99.90;;;;;;4963281;28;20442;-68
2022/01/25 14:49:06;;;;;;;37.77;26.83;;;7.30;99.90;;;;;;4968776;28;20839;-69